Time;durP1;ratioP1;P1;durP2;ratioP2;P2;SDS_P1;SDS_P2;PMS_P1;PMS_P2;Temp;Humidity;BMP_temperature;BMP_pressure;BME280_temperature;BME280_humidity;BME280_pressure;Samples;Min_cycle;Max_cycle;Signal;HPM_P1;HPM_P2
2021/12/30 00:01:01;;;;;;;18.20;11.80;;;7.60;99.90;;;;;;5009337;28;20619;-76
2021/12/30 00:03:30;;;;;;;17.73;11.30;;;7.60;99.90;;;;;;5008162;28;20623;-76
2021/12/30 00:05:58;;;;;;;18.40;11.20;;;7.60;99.90;;;;;;5008367;28;20644;-77
2021/12/30 00:08:24;;;;;;;19.97;12.47;;;7.60;99.90;;;;;;5009137;28;20787;-76
2021/12/30 00:10:53;;;;;;;17.20;11.70;;;7.60;99.90;;;;;;4991792;28;21289;-76
2021/12/30 00:13:20;;;;;;;17.43;11.70;;;7.70;99.90;;;;;;5006677;28;20700;-77
2021/12/30 00:15:46;;;;;;;16.97;11.87;;;7.70;99.90;;;;;;4983862;28;20823;-77
2021/12/30 00:18:15;;;;;;;16.93;11.00;;;7.70;99.90;;;;;;5009581;28;20660;-76
2021/12/30 00:20:41;;;;;;;17.17;11.23;;;7.70;99.90;;;;;;5008856;28;20640;-76
2021/12/30 00:23:08;;;;;;;15.13;10.63;;;7.70;99.90;;;;;;4993971;28;21161;-76
2021/12/30 00:25:41;;;;;;;17.30;10.73;;;7.70;99.90;;;;;;4997153;28;20636;-76
2021/12/30 00:28:15;;;;;;;16.10;11.20;;;7.70;99.90;;;;;;5001138;28;20596;-76
2021/12/30 00:30:44;;;;;;;16.03;10.03;;;7.80;99.90;;;;;;5000631;28;20660;-77
2021/12/30 00:33:10;;;;;;;15.07;10.70;;;7.80;99.90;;;;;;5010646;28;20651;-76
2021/12/30 00:35:39;;;;;;;14.53;10.03;;;7.90;99.90;;;;;;4992385;28;20692;-76
2021/12/30 00:38:08;;;;;;;15.83;11.03;;;7.90;99.90;;;;;;5005570;28;20633;-76
2021/12/30 00:40:35;;;;;;;15.90;10.77;;;7.90;99.90;;;;;;4992953;28;21004;-76
2021/12/30 00:43:01;;;;;;;17.00;11.77;;;8.00;99.90;;;;;;5007183;28;21025;-76
2021/12/30 00:45:31;;;;;;;17.47;11.40;;;8.00;99.90;;;;;;5009771;28;20640;-76
2021/12/30 00:47:57;;;;;;;17.83;12.23;;;8.00;99.90;;;;;;5010825;28;20264;-76
2021/12/30 00:50:23;;;;;;;20.93;11.77;;;8.10;99.90;;;;;;5008107;28;21219;-76
2021/12/30 00:52:49;;;;;;;21.07;12.97;;;8.20;99.90;;;;;;5009297;28;20608;-76
2021/12/30 00:55:15;;;;;;;20.90;13.50;;;8.20;99.90;;;;;;5003627;28;20675;-76
2021/12/30 00:57:43;;;;;;;23.60;14.23;;;8.20;99.90;;;;;;5002322;28;20611;-76
2021/12/30 01:00:13;;;;;;;26.20;14.93;;;8.30;99.90;;;;;;4975571;28;20698;-76
2021/12/30 01:02:39;;;;;;;21.40;14.03;;;8.30;99.90;;;;;;5006554;28;20957;-76
2021/12/30 01:05:06;;;;;;;24.23;15.20;;;8.30;99.90;;;;;;4989761;28;21733;-76
2021/12/30 01:07:34;;;;;;;23.27;14.47;;;8.40;99.90;;;;;;4982239;28;20636;-76
2021/12/30 01:10:02;;;;;;;23.63;15.30;;;8.40;99.90;;;;;;5004356;28;20645;-76
2021/12/30 01:12:28;;;;;;;31.10;15.83;;;8.40;99.90;;;;;;5006712;28;20624;-76
2021/12/30 01:14:54;;;;;;;26.07;16.30;;;8.40;99.90;;;;;;4987740;28;20668;-76
2021/12/30 01:17:41;;;;;;;25.10;16.80;;;8.50;99.90;;;;;;5005267;28;20604;-76
2021/12/30 01:20:12;;;;;;;28.67;16.77;;;8.50;99.90;;;;;;4988460;28;20604;-76
2021/12/30 01:22:38;;;;;;;26.10;16.40;;;8.50;99.90;;;;;;4991275;28;20987;-76
2021/12/30 01:25:07;;;;;;;27.73;18.50;;;8.50;99.90;;;;;;4989613;28;21375;-76
2021/12/30 01:27:36;;;;;;;30.83;19.10;;;8.50;99.90;;;;;;5006654;28;20491;-76
2021/12/30 01:30:04;;;;;;;27.77;16.87;;;8.60;99.90;;;;;;4989684;28;20764;-76
2021/12/30 01:32:30;;;;;;;33.30;18.47;;;8.50;99.90;;;;;;4989891;28;20612;-76
2021/12/30 01:34:56;;;;;;;35.00;18.00;;;8.60;99.90;;;;;;4991952;28;20667;-76
2021/12/30 01:37:23;;;;;;;33.37;18.20;;;8.60;99.90;;;;;;5002370;28;20178;-77
2021/12/30 01:39:49;;;;;;;33.43;19.23;;;8.70;99.90;;;;;;5005981;28;20693;-76
2021/12/30 01:42:14;;;;;;;31.40;17.10;;;8.70;99.90;;;;;;5008894;28;20627;-77
2021/12/30 01:44:40;;;;;;;34.13;18.80;;;8.70;99.90;;;;;;4984710;28;20178;-77
2021/12/30 01:47:06;;;;;;;31.40;18.20;;;8.70;99.90;;;;;;4999547;28;20623;-76
2021/12/30 01:49:33;;;;;;;29.53;18.17;;;8.70;99.90;;;;;;4992057;28;20625;-77
2021/12/30 01:51:59;;;;;;;37.53;18.97;;;8.70;99.90;;;;;;4993284;28;20604;-76
2021/12/30 01:54:26;;;;;;;32.20;17.50;;;8.80;99.90;;;;;;5007498;28;20684;-76
2021/12/30 01:56:53;;;;;;;35.50;18.33;;;8.90;99.90;;;;;;4988514;28;20672;-77
2021/12/30 01:59:23;;;;;;;33.03;18.30;;;8.90;99.90;;;;;;4988987;28;21034;-76
2021/12/30 02:01:56;;;;;;;37.90;18.77;;;8.90;99.90;;;;;;5003047;28;20639;-77
2021/12/30 02:04:42;;;;;;;31.23;16.80;;;8.90;99.90;;;;;;4984490;28;20616;-77
2021/12/30 02:07:09;;;;;;;34.70;17.00;;;8.90;99.90;;;;;;5007134;28;20750;-76
2021/12/30 02:09:37;;;;;;;26.30;16.57;;;9.00;99.90;;;;;;5005422;28;20651;-77
2021/12/30 02:12:04;;;;;;;27.07;17.10;;;9.00;99.90;;;;;;4989509;28;20623;-76
2021/12/30 02:14:36;;;;;;;31.30;17.10;;;9.00;99.90;;;;;;4989660;28;20617;-76
2021/12/30 02:17:04;;;;;;;34.53;17.20;;;9.00;99.90;;;;;;5005951;28;20707;-77
2021/12/30 02:19:30;;;;;;;30.27;16.30;;;9.00;99.90;;;;;;5006732;28;20811;-77
2021/12/30 02:21:55;;;;;;;27.27;14.57;;;9.00;99.90;;;;;;4999236;28;20617;-76
2021/12/30 02:24:23;;;;;;;25.90;14.67;;;9.00;99.90;;;;;;5009325;28;21008;-76
2021/12/30 02:26:52;;;;;;;29.80;15.70;;;9.10;99.90;;;;;;4990300;28;20244;-76
2021/12/30 02:29:18;;;;;;;29.90;15.07;;;9.00;99.90;;;;;;4983759;28;20644;-77
2021/12/30 02:31:46;;;;;;;24.47;13.93;;;9.00;99.90;;;;;;5004255;28;20669;-77
2021/12/30 02:34:12;;;;;;;27.17;14.50;;;9.00;99.90;;;;;;5007223;28;20611;-76
2021/12/30 02:36:38;;;;;;;22.90;13.43;;;9.00;99.90;;;;;;4991458;28;20709;-76
2021/12/30 02:39:07;;;;;;;27.60;14.43;;;9.00;99.90;;;;;;5005194;28;20640;-76
2021/12/30 02:41:44;;;;;;;;;;;;;;;;;;;;;
2021/12/30 02:44:10;;;;;;;23.37;13.20;;;9.10;99.90;;;;;;5000932;28;20666;-76
2021/12/30 02:46:37;;;;;;;21.50;12.63;;;9.10;99.90;;;;;;4990440;28;20746;-77
2021/12/30 02:49:03;;;;;;;22.20;12.40;;;9.10;99.90;;;;;;4993562;28;20221;-76
2021/12/30 02:51:31;;;;;;;24.60;11.97;;;9.10;99.90;;;;;;5009393;28;20616;-76
2021/12/30 02:53:59;;;;;;;24.10;12.63;;;9.10;99.90;;;;;;5009444;28;20231;-76
2021/12/30 02:56:29;;;;;;;26.47;12.77;;;9.10;99.90;;;;;;5009353;28;20752;-76
2021/12/30 02:58:54;;;;;;;23.10;12.20;;;9.20;99.90;;;;;;5008032;28;21233;-76
2021/12/30 03:01:26;;;;;;;22.73;12.70;;;9.20;99.90;;;;;;5009852;28;20608;-77
2021/12/30 03:03:53;;;;;;;22.57;12.13;;;9.20;99.90;;;;;;5009190;28;20268;-76
2021/12/30 03:06:18;;;;;;;22.27;10.23;;;9.20;99.90;;;;;;5009169;28;20652;-76
2021/12/30 03:08:46;;;;;;;19.80;10.40;;;9.20;99.90;;;;;;5006719;28;21183;-76
2021/12/30 03:11:15;;;;;;;20.33;10.73;;;9.20;99.90;;;;;;5008879;28;20624;-76
2021/12/30 03:13:43;;;;;;;19.40;9.70;;;9.20;99.90;;;;;;5005362;28;20686;-76
2021/12/30 03:16:22;;;;;;;19.17;9.83;;;9.20;99.90;;;;;;5007772;28;20667;-76
2021/12/30 03:18:50;;;;;;;16.47;11.73;;;9.20;99.90;;;;;;5006722;28;21050;-76
2021/12/30 03:21:20;;;;;;;23.40;10.00;;;9.20;99.90;;;;;;5007886;28;20624;-76
2021/12/30 03:23:50;;;;;;;19.67;9.07;;;9.30;99.90;;;;;;4990095;28;21196;-76
2021/12/30 03:26:16;;;;;;;16.57;8.30;;;9.30;99.90;;;;;;4991010;28;20664;-76
2021/12/30 03:28:44;;;;;;;18.27;9.10;;;9.30;99.90;;;;;;5001950;28;20715;-76
2021/12/30 03:31:13;;;;;;;15.30;8.23;;;9.20;99.90;;;;;;5010590;28;20217;-78
2021/12/30 03:33:39;;;;;;;17.33;8.87;;;9.30;99.90;;;;;;4991835;28;20623;-76
2021/12/30 03:36:06;;;;;;;17.10;7.87;;;9.30;99.90;;;;;;4999656;28;20790;-76
2021/12/30 03:38:37;;;;;;;19.10;8.10;;;9.30;99.90;;;;;;4988543;28;20639;-76
2021/12/30 03:41:06;;;;;;;16.50;7.37;;;9.20;99.90;;;;;;5008251;28;20609;-76
2021/12/30 03:43:31;;;;;;;19.43;8.20;;;9.30;99.90;;;;;;5010373;28;20611;-76
2021/12/30 03:45:57;;;;;;;18.80;7.93;;;9.30;99.90;;;;;;5002528;28;20745;-77
2021/12/30 03:48:31;;;;;;;19.30;6.43;;;9.20;99.90;;;;;;5012123;28;20189;-77
2021/12/30 03:51:06;;;;;;;21.63;7.90;;;9.20;99.90;;;;;;4991596;28;20210;-77
2021/12/30 03:53:39;;;;;;;18.40;7.53;;;9.20;99.90;;;;;;5009047;28;20619;-77
2021/12/30 03:56:11;;;;;;;16.47;6.80;;;9.30;99.90;;;;;;4990720;28;21063;-77
2021/12/30 03:58:39;;;;;;;16.90;6.57;;;9.20;99.90;;;;;;4993326;28;20619;-78
2021/12/30 04:01:05;;;;;;;19.13;7.93;;;9.20;99.90;;;;;;5000647;28;20982;-77
2021/12/30 04:03:31;;;;;;;19.60;6.90;;;9.20;99.90;;;;;;5008175;28;20620;-77
2021/12/30 04:05:57;;;;;;;12.77;6.53;;;9.20;99.90;;;;;;4990739;28;20667;-77
2021/12/30 04:08:23;;;;;;;16.07;7.10;;;9.20;99.90;;;;;;5008090;28;20193;-77
2021/12/30 04:10:49;;;;;;;12.00;6.23;;;9.20;99.90;;;;;;5007859;28;20617;-77
2021/12/30 04:13:14;;;;;;;16.07;7.00;;;9.20;99.90;;;;;;5007449;28;20252;-76
2021/12/30 04:15:43;;;;;;;20.77;6.40;;;9.20;99.90;;;;;;5008757;28;21020;-76
2021/12/30 04:18:11;;;;;;;17.30;7.87;;;9.20;99.90;;;;;;5006658;28;20255;-77
2021/12/30 04:20:36;;;;;;;14.77;7.43;;;9.10;99.90;;;;;;4989958;28;20668;-77
2021/12/30 04:23:02;;;;;;;11.90;6.13;;;9.10;99.90;;;;;;4994450;28;20645;-77
2021/12/30 04:25:30;;;;;;;15.37;6.77;;;9.10;99.90;;;;;;4993282;28;20221;-77
2021/12/30 04:27:56;;;;;;;18.50;6.60;;;9.10;99.90;;;;;;4990551;28;20604;-76
2021/12/30 04:30:22;;;;;;;18.20;6.53;;;9.10;99.90;;;;;;5004926;28;20648;-77
2021/12/30 04:32:47;;;;;;;16.50;6.80;;;9.00;99.90;;;;;;5009992;28;20201;-76
2021/12/30 04:35:13;;;;;;;16.77;7.27;;;9.00;99.90;;;;;;5009113;28;20214;-77
2021/12/30 04:37:40;;;;;;;15.80;6.03;;;9.00;99.90;;;;;;5010203;28;20186;-77
2021/12/30 04:40:07;;;;;;;18.53;6.30;;;8.90;99.90;;;;;;5007382;28;20764;-77
2021/12/30 04:42:33;;;;;;;19.10;6.23;;;9.00;99.90;;;;;;4985663;28;20612;-76
2021/12/30 04:44:58;;;;;;;10.70;5.67;;;9.00;99.90;;;;;;5004954;28;21272;-77
2021/12/30 04:47:25;;;;;;;20.00;6.50;;;9.00;99.90;;;;;;4987955;28;20243;-76
2021/12/30 04:49:57;;;;;;;15.47;6.50;;;8.90;99.90;;;;;;4982709;28;20218;-76
2021/12/30 04:52:22;;;;;;;16.43;6.90;;;8.80;99.90;;;;;;5006337;28;21202;-76
2021/12/30 04:54:49;;;;;;;15.60;7.47;;;8.90;99.90;;;;;;5006184;28;20612;-76
2021/12/30 04:57:16;;;;;;;13.87;6.33;;;8.80;99.90;;;;;;5007404;28;20185;-76
2021/12/30 04:59:41;;;;;;;18.27;6.67;;;8.90;99.90;;;;;;5005480;28;20651;-76
2021/12/30 05:02:07;;;;;;;14.50;6.10;;;8.90;99.90;;;;;;4989404;28;20635;-76
2021/12/30 05:04:35;;;;;;;13.20;7.23;;;8.80;99.90;;;;;;4998491;28;20182;-76
2021/12/30 05:07:01;;;;;;;12.43;6.30;;;8.90;99.90;;;;;;5008087;28;20196;-77
2021/12/30 05:09:31;;;;;;;16.43;6.63;;;8.90;99.90;;;;;;5004954;28;20648;-77
2021/12/30 05:11:57;;;;;;;14.77;7.60;;;8.90;99.90;;;;;;5007967;28;20181;-77
2021/12/30 05:14:23;;;;;;;16.87;7.50;;;8.90;99.90;;;;;;5008213;28;20666;-77
2021/12/30 05:16:49;;;;;;;21.53;8.23;;;8.90;99.90;;;;;;4991708;28;20217;-77
2021/12/30 05:19:15;;;;;;;19.60;7.60;;;8.90;99.90;;;;;;5009315;28;21128;-76
2021/12/30 05:21:41;;;;;;;15.03;7.17;;;8.90;99.90;;;;;;5008431;28;20731;-77
2021/12/30 05:24:07;;;;;;;19.20;8.40;;;8.90;99.90;;;;;;4990816;28;20560;-78
2021/12/30 05:26:34;;;;;;;15.73;7.60;;;8.90;99.90;;;;;;5006715;28;20227;-76
2021/12/30 05:28:59;;;;;;;16.63;6.67;;;8.90;99.90;;;;;;4990115;28;20628;-77
2021/12/30 05:31:26;;;;;;;14.87;6.90;;;8.90;99.90;;;;;;5009446;28;20619;-76
2021/12/30 05:33:54;;;;;;;18.80;7.80;;;9.00;99.90;;;;;;5002487;28;20217;-76
2021/12/30 05:36:20;;;;;;;24.03;8.47;;;9.00;99.90;;;;;;4989609;28;20702;-76
2021/12/30 05:38:45;;;;;;;18.50;8.63;;;9.00;99.90;;;;;;5006304;28;21043;-76
2021/12/30 05:41:11;;;;;;;19.63;9.13;;;9.00;99.90;;;;;;4988487;28;20185;-76
2021/12/30 05:43:39;;;;;;;23.70;10.10;;;9.00;99.90;;;;;;4985762;28;20608;-76
2021/12/30 05:46:05;;;;;;;16.50;8.60;;;9.00;99.90;;;;;;4992660;28;20213;-76
2021/12/30 05:48:35;;;;;;;16.83;9.27;;;9.00;99.90;;;;;;5008263;28;20674;-76
2021/12/30 05:51:03;;;;;;;22.63;9.77;;;9.00;99.90;;;;;;5009620;28;20182;-76
2021/12/30 05:53:30;;;;;;;22.20;10.20;;;9.00;99.90;;;;;;5001974;28;20723;-76
2021/12/30 05:55:59;;;;;;;21.77;10.00;;;9.00;99.90;;;;;;5010140;28;20664;-77
2021/12/30 05:58:28;;;;;;;18.73;9.67;;;9.10;99.90;;;;;;5010253;28;20943;-76
2021/12/30 06:00:54;;;;;;;18.13;9.73;;;9.00;99.90;;;;;;5008908;28;20691;-77
2021/12/30 06:03:20;;;;;;;27.77;9.80;;;9.10;99.90;;;;;;5010513;28;20671;-76
2021/12/30 06:05:47;;;;;;;22.30;10.43;;;9.10;99.90;;;;;;5000345;28;20243;-76
2021/12/30 06:08:13;;;;;;;26.90;10.40;;;9.10;99.90;;;;;;5011681;28;20682;-77
2021/12/30 06:10:40;;;;;;;22.03;9.37;;;9.10;99.90;;;;;;4992847;28;20672;-77
2021/12/30 06:13:08;;;;;;;19.00;9.50;;;9.10;99.90;;;;;;5010306;28;20198;-76
2021/12/30 06:15:33;;;;;;;17.63;8.73;;;9.10;99.90;;;;;;5008304;28;20664;-77
2021/12/30 06:18:02;;;;;;;30.67;10.20;;;9.20;99.90;;;;;;5005559;28;20632;-77
2021/12/30 06:20:29;;;;;;;25.47;10.57;;;9.20;99.90;;;;;;5008328;28;20232;-76
2021/12/30 06:22:57;;;;;;;21.33;9.53;;;9.10;99.90;;;;;;4993949;28;20620;-77
2021/12/30 06:25:25;;;;;;;22.70;9.70;;;9.10;99.90;;;;;;5013118;28;21226;-77
2021/12/30 06:27:51;;;;;;;25.13;9.77;;;9.10;99.90;;;;;;5011635;28;20611;-76
2021/12/30 06:30:16;;;;;;;24.77;9.50;;;9.10;99.90;;;;;;5011591;28;20627;-76
2021/12/30 06:32:42;;;;;;;29.10;8.97;;;9.10;99.90;;;;;;5007208;28;20275;-77
2021/12/30 06:35:08;;;;;;;27.23;8.90;;;9.20;99.90;;;;;;4993532;28;20249;-76
2021/12/30 06:37:38;;;;;;;24.97;10.73;;;9.20;99.90;;;;;;5012256;28;20285;-76
2021/12/30 06:40:07;;;;;;;22.73;9.37;;;9.20;99.90;;;;;;5009099;28;21019;-76
2021/12/30 06:42:32;;;;;;;17.00;8.87;;;9.20;99.90;;;;;;5012015;28;20618;-77
2021/12/30 06:44:58;;;;;;;23.50;9.33;;;9.20;99.90;;;;;;5002749;28;20636;-76
2021/12/30 06:47:24;;;;;;;20.13;9.30;;;9.30;99.90;;;;;;5011409;28;20201;-76
2021/12/30 06:49:51;;;;;;;19.00;9.07;;;9.30;99.90;;;;;;5008914;28;20227;-76
2021/12/30 06:52:16;;;;;;;29.87;10.40;;;9.30;99.90;;;;;;5010510;28;20636;-76
2021/12/30 06:54:42;;;;;;;26.53;12.27;;;9.30;99.90;;;;;;5011677;28;20648;-76
2021/12/30 06:57:11;;;;;;;24.80;10.27;;;9.30;99.90;;;;;;5009194;28;20311;-76
2021/12/30 06:59:37;;;;;;;24.17;10.33;;;9.30;99.90;;;;;;5007791;28;20247;-76
2021/12/30 07:02:05;;;;;;;23.10;10.30;;;9.30;99.90;;;;;;5010369;28;20686;-76
2021/12/30 07:04:30;;;;;;;26.90;10.63;;;9.30;99.90;;;;;;4996182;28;20654;-76
2021/12/30 07:06:56;;;;;;;22.50;10.03;;;9.30;99.90;;;;;;4997561;28;20671;-76
2021/12/30 07:09:21;;;;;;;21.80;10.13;;;9.30;99.90;;;;;;5003081;28;20255;-76
2021/12/30 07:11:51;;;;;;;31.53;10.70;;;9.30;99.90;;;;;;4992351;28;20200;-76
2021/12/30 07:14:18;;;;;;;25.73;10.80;;;9.30;99.90;;;;;;4990192;28;20204;-76
2021/12/30 07:16:44;;;;;;;25.93;11.30;;;9.30;99.90;;;;;;5010983;28;20749;-77
2021/12/30 07:19:11;;;;;;;23.77;10.20;;;9.30;99.90;;;;;;5009078;28;20680;-76
2021/12/30 07:21:37;;;;;;;27.10;12.87;;;9.40;99.90;;;;;;4994242;28;20615;-76
2021/12/30 07:24:03;;;;;;;26.90;11.37;;;9.40;99.90;;;;;;4998832;28;21196;-76
2021/12/30 07:26:28;;;;;;;26.27;11.80;;;9.40;99.90;;;;;;4999435;28;20702;-76
2021/12/30 07:28:54;;;;;;;26.30;11.33;;;9.30;99.90;;;;;;4998389;28;20255;-76
2021/12/30 07:31:19;;;;;;;20.70;12.20;;;9.40;99.90;;;;;;5001555;28;20248;-76
2021/12/30 07:33:45;;;;;;;27.00;11.27;;;9.30;99.90;;;;;;5007764;28;20196;-76
2021/12/30 07:36:11;;;;;;;26.80;12.90;;;9.40;99.90;;;;;;5009330;28;20253;-77
2021/12/30 07:38:36;;;;;;;29.63;13.10;;;9.40;99.90;;;;;;5016356;28;20186;-77
2021/12/30 07:41:04;;;;;;;29.50;13.93;;;9.30;99.90;;;;;;5015268;28;20296;-77
2021/12/30 07:43:30;;;;;;;28.80;11.63;;;9.40;99.90;;;;;;5004564;28;20194;-77
2021/12/30 07:45:56;;;;;;;29.13;12.90;;;9.40;99.90;;;;;;5012835;28;20727;-77
2021/12/30 07:48:21;;;;;;;29.30;12.90;;;9.40;99.90;;;;;;4994508;28;20720;-77
2021/12/30 07:50:49;;;;;;;30.00;14.10;;;9.40;99.90;;;;;;4996704;28;20202;-76
2021/12/30 07:53:16;;;;;;;27.57;12.03;;;9.40;99.90;;;;;;5011353;28;20181;-77
2021/12/30 07:55:41;;;;;;;24.73;12.83;;;9.40;99.90;;;;;;4993612;28;20672;-77
2021/12/30 07:58:07;;;;;;;29.47;13.20;;;9.40;99.90;;;;;;4989838;28;20613;-76
2021/12/30 08:00:33;;;;;;;30.50;14.83;;;9.50;99.90;;;;;;5006575;28;20312;-76
2021/12/30 08:02:59;;;;;;;32.73;13.33;;;9.50;99.90;;;;;;5006638;28;20673;-76
2021/12/30 08:05:24;;;;;;;27.57;14.10;;;9.50;99.90;;;;;;5006263;28;20656;-77
2021/12/30 08:07:50;;;;;;;29.27;13.43;;;9.50;99.90;;;;;;5005115;28;20201;-76
2021/12/30 08:10:18;;;;;;;33.03;13.00;;;9.50;99.90;;;;;;4998306;28;20221;-76
2021/12/30 08:12:45;;;;;;;25.97;12.90;;;9.50;99.90;;;;;;5008743;28;20707;-76
2021/12/30 08:15:16;;;;;;;29.93;13.57;;;9.60;99.90;;;;;;4986621;28;20652;-77
2021/12/30 08:17:43;;;;;;;32.97;12.80;;;9.50;99.90;;;;;;5010642;28;21283;-77
2021/12/30 08:20:10;;;;;;;28.10;14.37;;;9.60;99.90;;;;;;5006649;28;20739;-77
2021/12/30 08:22:36;;;;;;;34.30;14.43;;;9.60;99.90;;;;;;5007398;28;20644;-76
2021/12/30 08:25:04;;;;;;;37.17;13.60;;;9.50;99.90;;;;;;5009714;28;21215;-76
2021/12/30 08:27:29;;;;;;;32.87;14.20;;;9.60;99.90;;;;;;5004066;28;21207;-77
2021/12/30 08:29:55;;;;;;;26.30;13.63;;;9.60;99.90;;;;;;5006107;28;20624;-77
2021/12/30 08:32:21;;;;;;;36.67;14.40;;;9.70;99.90;;;;;;5008853;28;20189;-77
2021/12/30 08:34:47;;;;;;;27.70;14.10;;;9.70;99.90;;;;;;5005747;28;20188;-77
2021/12/30 08:37:13;;;;;;;32.57;14.20;;;9.70;99.90;;;;;;4997103;28;20209;-77
2021/12/30 08:39:40;;;;;;;31.80;15.40;;;9.70;99.90;;;;;;5005066;28;20621;-75
2021/12/30 08:42:20;;;;;;;34.77;14.40;;;9.70;99.90;;;;;;5003231;28;20614;-76
2021/12/30 08:44:46;;;;;;;30.00;14.87;;;9.70;99.90;;;;;;5004297;28;20631;-76
2021/12/30 08:47:12;;;;;;;34.63;15.80;;;9.70;99.90;;;;;;5000872;28;21216;-76
2021/12/30 08:49:41;;;;;;;25.37;13.60;;;9.70;99.90;;;;;;4998280;28;20633;-78
2021/12/30 08:52:08;;;;;;;30.17;15.73;;;9.70;99.90;;;;;;5005923;28;20554;-77
2021/12/30 08:54:35;;;;;;;22.97;13.37;;;9.80;99.90;;;;;;5008078;28;20823;-78
2021/12/30 08:57:01;;;;;;;38.83;16.03;;;9.80;99.90;;;;;;5005822;28;20644;-77
2021/12/30 08:59:26;;;;;;;31.13;15.93;;;9.80;99.90;;;;;;5005963;28;20643;-77
2021/12/30 09:01:52;;;;;;;33.33;15.00;;;9.80;99.90;;;;;;4989750;28;20675;-76
2021/12/30 09:04:17;;;;;;;31.47;16.30;;;9.90;99.90;;;;;;4995475;28;20670;-78
2021/12/30 09:06:43;;;;;;;32.97;15.43;;;9.80;99.90;;;;;;5003253;28;20213;-78
2021/12/30 09:09:09;;;;;;;37.17;15.57;;;9.90;99.90;;;;;;4985897;28;20272;-77
2021/12/30 09:11:34;;;;;;;32.07;15.47;;;9.90;99.90;;;;;;4988340;28;20198;-78
2021/12/30 09:14:03;;;;;;;30.77;15.07;;;9.90;99.90;;;;;;4983491;28;21228;-79
2021/12/30 09:16:28;;;;;;;36.90;16.67;;;9.90;99.90;;;;;;4980960;28;20320;-78
2021/12/30 09:18:54;;;;;;;34.10;16.37;;;10.00;99.90;;;;;;4993509;28;20730;-78
2021/12/30 09:21:20;;;;;;;35.10;16.87;;;10.00;99.90;;;;;;4974589;28;20248;-79
2021/12/30 09:23:45;;;;;;;34.60;17.23;;;10.00;99.90;;;;;;4981444;28;20193;-78
2021/12/30 09:26:11;;;;;;;33.43;16.20;;;10.10;99.90;;;;;;4983317;28;20214;-78
2021/12/30 09:28:36;;;;;;;39.60;17.33;;;10.10;99.90;;;;;;4998601;28;20189;-78
2021/12/30 09:31:02;;;;;;;45.83;18.47;;;10.00;99.90;;;;;;4983285;28;20189;-78
2021/12/30 09:33:28;;;;;;;45.87;18.00;;;10.10;99.90;;;;;;4982438;28;20244;-77
2021/12/30 09:35:54;;;;;;;38.23;18.10;;;10.00;99.90;;;;;;5004580;28;20276;-77
2021/12/30 09:38:20;;;;;;;34.37;16.07;;;10.00;99.90;;;;;;4983178;28;20228;-77
2021/12/30 09:40:46;;;;;;;34.40;16.80;;;10.00;99.90;;;;;;4975331;28;20588;-77
2021/12/30 09:43:11;;;;;;;38.10;19.30;;;10.00;99.90;;;;;;4998389;28;20628;-78
2021/12/30 09:45:41;;;;;;;39.73;18.00;;;10.10;99.90;;;;;;4983028;28;20212;-78
2021/12/30 09:48:10;;;;;;;40.17;19.87;;;10.10;99.90;;;;;;4989999;28;20623;-77
2021/12/30 09:50:52;;;;;;;33.47;17.30;;;10.10;99.90;;;;;;4987313;28;20672;-77
2021/12/30 09:53:20;;;;;;;38.77;17.97;;;10.10;99.90;;;;;;4978330;28;20659;-77
2021/12/30 09:55:45;;;;;;;35.67;17.27;;;10.00;99.90;;;;;;4984391;28;20656;-78
2021/12/30 09:58:11;;;;;;;53.63;19.30;;;10.00;99.90;;;;;;5005370;28;21058;-79
2021/12/30 10:00:37;;;;;;;39.73;18.20;;;10.10;99.90;;;;;;4992640;28;20217;-78
2021/12/30 10:03:03;;;;;;;39.20;19.10;;;10.10;99.90;;;;;;5002002;28;20262;-80
2021/12/30 10:05:32;;;;;;;41.13;18.73;;;10.10;99.90;;;;;;5022834;28;20636;-79
2021/12/30 10:08:27;;;;;;;35.37;17.97;;;10.10;99.90;;;;;;5013796;28;21055;-78
2021/12/30 10:10:55;;;;;;;38.83;18.20;;;10.20;99.90;;;;;;4998473;28;20632;-79
2021/12/30 10:13:25;;;;;;;39.00;18.40;;;10.20;99.90;;;;;;4997972;28;20601;-79
2021/12/30 10:16:09;;;;;;;50.13;19.17;;;10.30;99.90;;;;;;5009213;28;20659;-79
2021/12/30 10:18:55;;;;;;;38.37;16.90;;;10.30;99.90;;;;;;5008808;28;21557;-78
2021/12/30 10:21:24;;;;;;;37.87;18.10;;;10.30;99.90;;;;;;4987581;28;20968;-79
2021/12/30 10:24:01;;;;;;;34.87;16.90;;;10.40;99.90;;;;;;5010374;28;20711;-79
2021/12/30 10:26:27;;;;;;;34.93;15.83;;;10.40;99.90;;;;;;5002636;28;20763;-79
2021/12/30 10:29:01;;;;;;;33.70;16.37;;;10.40;99.90;;;;;;4989678;28;20632;-80
2021/12/30 10:31:48;;;;;;;30.20;15.00;;;10.40;99.90;;;;;;5004696;28;20649;-79
2021/12/30 10:34:16;;;;;;;26.77;14.97;;;10.40;99.90;;;;;;5009074;28;20646;-79
2021/12/30 10:36:48;;;;;;;25.33;14.00;;;10.40;99.90;;;;;;4997670;28;20696;-81
2021/12/30 10:43:54;;;;;;;23.60;13.27;;;10.50;99.90;;;;;;5004859;28;20588;-78
2021/12/30 10:46:48;;;;;;;24.10;12.73;;;10.50;99.90;;;;;;4986331;28;20639;-79
2021/12/30 10:49:28;;;;;;;21.03;11.60;;;10.60;99.90;;;;;;5020611;28;20655;-84
2021/12/30 10:51:58;;;;;;;25.83;12.60;;;10.60;99.90;;;;;;4988103;28;20596;-87
2021/12/30 10:54:34;;;;;;;18.17;11.40;;;10.70;99.90;;;;;;5018069;28;20194;-82
2021/12/30 10:57:10;;;;;;;20.97;11.40;;;10.70;99.90;;;;;;5018656;28;20624;-83
2021/12/30 10:59:54;;;;;;;20.70;9.53;;;10.90;99.90;;;;;;5014575;28;20635;-81
2021/12/30 11:02:23;;;;;;;16.90;9.70;;;10.80;99.90;;;;;;5014202;28;20604;-82
2021/12/30 11:05:02;;;;;;;13.57;8.47;;;10.90;99.90;;;;;;5003748;28;20616;-80
2021/12/30 11:08:04;;;;;;;14.50;9.10;;;10.90;99.90;;;;;;5001415;28;20619;-82
2021/12/30 11:10:33;;;;;;;12.33;7.50;;;10.90;99.90;;;;;;4981088;28;20652;-80
2021/12/30 11:13:11;;;;;;;11.40;7.90;;;10.90;99.90;;;;;;4980712;28;20664;-81
2021/12/30 11:15:37;;;;;;;10.47;7.67;;;10.80;99.90;;;;;;4980029;28;20786;-87
2021/12/30 11:18:29;;;;;;;13.87;6.60;;;11.10;99.90;;;;;;4986029;28;20665;-85
2021/12/30 11:20:54;;;;;;;10.60;6.83;;;11.20;99.90;;;;;;4985942;28;20234;-88
2021/12/30 11:23:20;;;;;;;10.60;6.57;;;11.20;99.90;;;;;;4993863;28;20633;-86
2021/12/30 11:25:48;;;;;;;13.37;7.00;;;11.20;99.90;;;;;;4973756;28;20202;-89
2021/12/30 11:28:14;;;;;;;9.50;6.53;;;11.20;99.90;;;;;;4977047;28;20194;-88
2021/12/30 11:30:40;;;;;;;10.57;6.90;;;11.20;99.90;;;;;;4984979;28;20646;-89
2021/12/30 11:33:05;;;;;;;14.10;5.87;;;11.30;99.90;;;;;;4995014;28;20182;-89
2021/12/30 11:35:31;;;;;;;9.47;6.13;;;11.40;99.90;;;;;;4982697;28;20226;-89
2021/12/30 11:37:57;;;;;;;10.40;6.37;;;11.40;99.90;;;;;;4984683;28;20186;-86
2021/12/30 11:40:25;;;;;;;8.47;5.63;;;11.40;99.90;;;;;;4997499;28;20218;-84
2021/12/30 11:43:12;;;;;;;8.80;4.97;;;11.50;99.90;;;;;;4983783;28;20182;-90
2021/12/30 11:45:40;;;;;;;9.20;6.20;;;11.50;99.90;;;;;;4999592;28;20664;-85
2021/12/30 11:48:27;;;;;;;9.30;5.83;;;11.50;99.90;;;;;;5000146;28;20648;-85
2021/12/30 11:51:08;;;;;;;6.80;4.73;;;11.50;99.90;;;;;;5020480;28;20639;-87
2021/12/30 11:53:34;;;;;;;8.43;5.83;;;11.70;99.90;;;;;;5000541;28;20609;-81
2021/12/30 11:56:03;;;;;;;9.17;5.30;;;11.60;99.90;;;;;;5006884;28;20664;-84
2021/12/30 12:01:12;;;;;;;8.53;5.73;;;11.70;99.90;;;;;;5019026;28;20625;-86
2021/12/30 12:03:48;;;;;;;8.20;5.53;;;11.80;99.90;;;;;;5017136;28;20256;-84
2021/12/30 12:06:27;;;;;;;6.60;5.20;;;11.80;99.90;;;;;;4986761;28;20656;-87
2021/12/30 12:09:01;;;;;;;6.77;4.83;;;11.90;99.90;;;;;;4999826;28;20620;-85
2021/12/30 12:11:48;;;;;;;6.70;5.20;;;11.90;99.90;;;;;;4997375;28;20722;-82
2021/12/30 12:14:32;;;;;;;5.30;4.80;;;11.90;99.90;;;;;;4999348;28;21518;-84
2021/12/30 12:17:10;;;;;;;8.17;5.30;;;11.90;99.90;;;;;;4991767;28;20627;-81
2021/12/30 12:19:49;;;;;;;6.50;5.60;;;11.90;99.90;;;;;;5011602;28;20664;-82
2021/12/30 12:22:18;;;;;;;5.87;4.70;;;12.00;99.90;;;;;;5000037;28;20692;-89
2021/12/30 12:25:04;;;;;;;6.03;4.83;;;12.10;99.90;;;;;;4992899;28;20633;-84
2021/12/30 12:27:32;;;;;;;6.80;4.50;;;12.00;99.90;;;;;;5013717;28;20608;-82
2021/12/30 12:30:00;;;;;;;5.20;4.00;;;12.10;99.90;;;;;;4995349;28;20642;-81
2021/12/30 12:32:34;;;;;;;5.03;4.23;;;12.00;99.90;;;;;;5005120;28;20639;-80
2021/12/30 12:35:20;;;;;;;6.40;4.27;;;12.10;99.90;;;;;;5006345;28;20644;-81
2021/12/30 12:37:49;;;;;;;4.37;3.83;;;12.10;99.90;;;;;;4980449;28;21211;-81
2021/12/30 12:40:30;;;;;;;4.50;3.80;;;12.10;99.90;;;;;;4985971;28;21064;-82
2021/12/30 12:43:04;;;;;;;3.90;3.50;;;12.20;99.90;;;;;;4988929;28;20624;-80
2021/12/30 12:45:52;;;;;;;4.23;3.53;;;12.20;99.90;;;;;;4982820;28;20736;-77
2021/12/30 12:48:18;;;;;;;3.63;3.20;;;12.20;99.90;;;;;;4982608;28;20667;-80
2021/12/30 12:50:44;;;;;;;4.50;3.30;;;12.30;99.90;;;;;;4978115;28;20638;-82
2021/12/30 12:53:38;;;;;;;3.50;3.00;;;12.30;99.90;;;;;;4994640;28;20205;-80
2021/12/30 12:56:06;;;;;;;3.60;3.30;;;12.30;99.90;;;;;;5003118;28;20664;-80